Akron Canton Regional Airport
KCAK : now visible

Airfield :











YOU CAN JOIN US ON...

 
LOGIN :

Register | Disclaimer

   EN    FR    IT 

 









Legend :    VFR   Marginal VFR   IFR   Intensive IFR   Very Intensive IFR
Visi :
Ceiling :
>= 8 km
>= 3000ft
5 to 8 km
1000 to 3000 ft
1500m to 5 km
500 to 1000 ft
800 to 1500m
200 to 500 ft
< 800m
< 200 ft
Symbols :   Thunderstorms  Fog  Heavy snow  Heavy precipitations  Wind > 20 kt






- Airport Elevation : 1228 ft
- IATA code : CAK


KCAK - Akron Canton Regional

CURRENT METAR :
  • 181127Z 13011KT 6SM -SN BR SCT007 OVC033 M03/M05 A3017 RMK AO2 P0002 T10281050

EXPIRED METARs :
  • 181115Z 11011KT 1/2SM R23/5500VP6000FT -SN BR BKN007 BKN014 OVC021 M03/M05 A3017 RMK AO2 SFC VIS 1 PRESFR P0001 T10281050
  • 181051Z 18008G18KT 2SM -SN BR OVC007 M03/M06 A3023 RMK AO2 WSHFT 1035 SFC VIS 3 SLP252 P0001 T10281056
  • 181020Z 15010KT 2SM -SN BR BKN009 BKN028 OVC050 M03/M06 A3021 RMK AO2 SFC VIS 3 P0001 T10331056
  • 181006Z 14011KT 1 1/4SM -SN BR SCT008 BKN016 OVC026 M03/M06 A3021 RMK AO2 TWR VIS 2 PRESFR P0001 T10331056
  • 180951Z 14014KT 2SM -SN BR SCT008 OVC033 M03/M06 A3023 RMK AO2 SLP254 P0000 T10331056
  • 180851Z 13012KT 2SM -SN BKN008 OVC095 M03/M06 A3026 RMK AO2 PK WND 10026/0819 SFC VIS 8 SLP262 P0000 60018 T10331061 58062

TAF KCAK
Valid from the 18 at 12:00 until the 19 at 12:00 UTC


181120Z 1812/1912 18015G25KT 3SM -FZRASN BR OVC010
TEMPO 1814/1816 1SM -PL BR OVC007
FM181800 20015G30KT 2SM -RA BR OVC008 WS020/20045KT
FM182100 22015G30KT 3SM -RA BR OVC003
FM182300 23015G30KT P6SM OVC008
FM190400 26015G30KT P6SM OVC015



MET'MAP, your aeronautical weather chart ! - Copyright ORBIFLY December 2007 - Disclaimer

ORBIFLY MET'MAP TEAM :

Programming & Development : Alexandra Zaïnal
Concept & original design : Baudouin d'Aumeries
Assistance for programming : Marc-Olivier Méhu
Technical & hardware support : Manuel Goepfert

Contact : metmap@orbifly.com




SOURCES & CREDITS :

   NOAA       Earth
Advisory